createdAt,value
2019-06-26T00:00:07.554Z,99.90
2019-06-26T00:01:13.158Z,99.90
2019-06-26T00:02:19.572Z,99.90
2019-06-26T00:03:24.873Z,99.90
2019-06-26T00:04:29.588Z,99.90
2019-06-26T00:05:35.557Z,99.90
2019-06-26T00:06:40.312Z,99.90
2019-06-26T00:07:45.648Z,99.90
2019-06-26T00:08:50.626Z,99.90
2019-06-26T00:09:57.334Z,99.90
2019-06-26T00:11:03.454Z,99.90
2019-06-26T00:12:09.232Z,99.90
2019-06-26T00:13:25.601Z,99.90
2019-06-26T00:14:21.261Z,99.90
2019-06-26T00:15:26.177Z,99.90
2019-06-26T00:16:31.851Z,99.90
2019-06-26T00:17:37.321Z,99.90
2019-06-26T00:18:42.617Z,99.90
2019-06-26T00:19:47.569Z,99.90
2019-06-26T00:20:52.921Z,99.90
2019-06-26T00:21:57.665Z,99.90
2019-06-26T00:23:03.021Z,99.90
2019-06-26T00:24:07.882Z,99.90
2019-06-26T00:25:21.958Z,99.90
2019-06-26T00:26:44.326Z,99.90
2019-06-26T00:27:49.826Z,99.90
2019-06-26T00:28:54.884Z,99.90
2019-06-26T00:30:00.494Z,99.90
2019-06-26T00:31:05.236Z,99.90
2019-06-26T00:33:39.846Z,99.90
2019-06-26T00:34:45.608Z,99.90
2019-06-26T00:35:50.881Z,99.90
2019-06-26T00:36:56.482Z,99.90
2019-06-26T00:38:01.170Z,99.90
2019-06-26T00:39:07.641Z,99.90
2019-06-26T00:40:12.710Z,99.90
2019-06-26T00:41:18.302Z,99.90
2019-06-26T00:42:25.179Z,99.90
2019-06-26T00:43:41.890Z,99.90
2019-06-26T00:44:37.043Z,99.90
2019-06-26T00:45:42.328Z,99.90
2019-06-26T00:46:47.272Z,99.90
2019-06-26T00:47:52.647Z,99.90
2019-06-26T00:48:57.370Z,99.90
2019-06-26T00:50:02.778Z,99.90
2019-06-26T00:51:07.489Z,99.90
2019-06-26T00:52:15.452Z,99.90
2019-06-26T00:53:20.200Z,99.90
2019-06-26T00:54:25.544Z,99.90
2019-06-26T00:55:30.370Z,99.90
2019-06-26T00:56:36.884Z,99.90
2019-06-26T00:57:41.901Z,99.90
2019-06-26T00:58:47.801Z,99.90
2019-06-26T00:59:52.509Z,99.90
2019-06-26T01:00:57.832Z,99.90
2019-06-26T01:02:03.418Z,99.90
2019-06-26T01:03:09.055Z,99.90
2019-06-26T01:04:17.757Z,99.90
2019-06-26T01:05:23.079Z,99.90
2019-06-26T01:06:44.333Z,99.90
2019-06-26T01:07:49.892Z,99.90
2019-06-26T01:08:54.592Z,99.90
2019-06-26T01:10:01.637Z,99.90
2019-06-26T01:11:06.452Z,99.90
2019-06-26T01:12:14.381Z,99.90
2019-06-26T01:13:19.531Z,99.90
2019-06-26T01:14:24.876Z,99.90
2019-06-26T01:15:29.876Z,99.90
2019-06-26T01:16:35.355Z,99.90
2019-06-26T01:17:40.830Z,99.90
2019-06-26T01:18:46.257Z,99.90
2019-06-26T01:19:51.008Z,99.90
2019-06-26T01:20:56.471Z,99.90
2019-06-26T01:22:03.576Z,99.90
2019-06-26T01:23:08.680Z,99.90
2019-06-26T01:24:13.750Z,99.90
2019-06-26T01:25:19.266Z,99.90
2019-06-26T01:26:24.734Z,99.90
2019-06-26T01:27:30.272Z,99.90
2019-06-26T01:28:35.469Z,99.90
2019-06-26T01:29:40.945Z,99.90
2019-06-26T01:30:45.730Z,99.90
2019-06-26T01:31:51.120Z,99.90
2019-06-26T01:32:56.316Z,99.90
2019-06-26T01:34:01.776Z,99.90
2019-06-26T01:35:08.434Z,99.90
2019-06-26T01:36:13.660Z,99.90
2019-06-26T01:37:18.398Z,99.90
2019-06-26T01:38:25.802Z,99.90
2019-06-26T01:39:30.511Z,99.90
2019-06-26T01:40:37.625Z,99.90
2019-06-26T01:41:42.390Z,99.90
2019-06-26T01:42:48.059Z,99.90
2019-06-26T01:43:53.629Z,99.90
2019-06-26T01:44:59.441Z,99.90
2019-06-26T01:46:17.645Z,99.90
2019-06-26T01:47:23.288Z,99.90
2019-06-26T01:48:28.344Z,99.90
2019-06-26T01:49:33.693Z,99.90
2019-06-26T01:50:38.394Z,99.90
2019-06-26T01:51:43.699Z,99.90
2019-06-26T01:52:48.506Z,99.90
2019-06-26T01:53:53.790Z,99.90
2019-06-26T01:54:58.638Z,99.90
2019-06-26T01:56:04.007Z,99.90
2019-06-26T01:57:08.693Z,99.90
2019-06-26T01:58:14.040Z,99.90
2019-06-26T01:59:18.956Z,99.90
2019-06-26T02:00:26.830Z,99.90
2019-06-26T02:01:31.748Z,99.90
2019-06-26T02:02:41.301Z,99.90
2019-06-26T02:03:45.928Z,99.90
2019-06-26T02:04:51.217Z,99.90
2019-06-26T02:05:55.901Z,99.90
2019-06-26T02:07:03.124Z,99.90
2019-06-26T02:08:08.305Z,99.90
2019-06-26T02:09:13.660Z,99.90
2019-06-26T02:10:18.789Z,99.90
2019-06-26T02:11:24.143Z,99.90
2019-06-26T02:12:28.882Z,99.90
2019-06-26T02:13:34.260Z,99.90
2019-06-26T02:14:39.414Z,99.90
2019-06-26T02:15:44.757Z,99.90
2019-06-26T02:16:49.612Z,99.90
2019-06-26T02:17:55.025Z,99.90
2019-06-26T02:19:01.955Z,99.90
2019-06-26T02:20:12.214Z,99.90
2019-06-26T02:21:16.902Z,99.90
2019-06-26T02:22:22.231Z,99.90
2019-06-26T02:23:27.005Z,99.90
2019-06-26T02:24:32.394Z,99.90
2019-06-26T02:25:37.076Z,99.90
2019-06-26T02:26:42.455Z,99.90
2019-06-26T02:27:47.224Z,99.90
2019-06-26T02:28:52.529Z,99.90
2019-06-26T02:29:57.253Z,99.90
2019-06-26T02:31:02.767Z,99.90
2019-06-26T02:32:07.730Z,99.90
2019-06-26T02:33:13.457Z,99.90
2019-06-26T02:34:18.232Z,99.90
2019-06-26T02:35:23.635Z,99.90
2019-06-26T02:36:28.404Z,99.90
2019-06-26T02:37:33.715Z,99.90
2019-06-26T02:38:39.066Z,99.90
2019-06-26T02:39:44.346Z,99.90
2019-06-26T02:41:39.763Z,99.90
2019-06-26T02:42:45.382Z,99.90
2019-06-26T02:43:50.549Z,99.90
2019-06-26T02:44:56.175Z,99.90
2019-06-26T02:46:00.840Z,99.90
2019-06-26T02:47:19.202Z,99.90
2019-06-26T02:48:12.948Z,99.90
2019-06-26T02:49:18.227Z,99.90
2019-06-26T02:50:22.991Z,99.90
2019-06-26T02:51:33.975Z,99.90
2019-06-26T02:52:38.844Z,99.90
2019-06-26T02:53:44.212Z,99.90
2019-06-26T02:54:48.928Z,99.90
2019-06-26T02:55:54.283Z,99.90
2019-06-26T02:56:59.061Z,99.90
2019-06-26T02:58:04.490Z,99.90
2019-06-26T02:59:09.452Z,99.90
2019-06-26T03:00:15.179Z,99.90
2019-06-26T03:01:19.826Z,99.90
2019-06-26T03:02:25.161Z,99.90
2019-06-26T03:03:29.975Z,99.90
2019-06-26T03:04:35.801Z,99.90
2019-06-26T03:05:40.733Z,99.90
2019-06-26T03:06:45.987Z,99.90
2019-06-26T03:07:51.223Z,99.90
2019-06-26T03:08:56.654Z,99.90
2019-06-26T03:10:01.549Z,99.90
2019-06-26T03:11:07.068Z,99.90
2019-06-26T03:12:11.706Z,99.90
2019-06-26T03:13:17.010Z,99.90
2019-06-26T03:14:21.779Z,99.90
2019-06-26T03:15:27.081Z,99.90
2019-06-26T03:16:31.837Z,99.90
2019-06-26T03:17:37.174Z,99.90
2019-06-26T03:18:41.923Z,99.90
2019-06-26T03:19:47.162Z,99.90
2019-06-26T03:20:55.859Z,99.90
2019-06-26T03:22:01.259Z,99.90
2019-06-26T03:23:06.119Z,99.90
2019-06-26T03:24:11.484Z,99.90
2019-06-26T03:25:16.140Z,99.90
2019-06-26T03:26:21.595Z,99.90
2019-06-26T03:27:26.489Z,99.90
2019-06-26T03:28:31.824Z,99.90
2019-06-26T03:29:36.556Z,99.90
2019-06-26T03:30:41.955Z,99.90
2019-06-26T03:31:46.687Z,99.90
2019-06-26T03:32:51.969Z,99.90
2019-06-26T03:33:56.632Z,99.90
2019-06-26T03:35:02.069Z,99.90
2019-06-26T03:36:06.784Z,99.90
2019-06-26T03:37:12.028Z,99.90
2019-06-26T03:38:16.748Z,99.90
2019-06-26T03:39:22.140Z,99.90
2019-06-26T03:40:27.154Z,99.90
2019-06-26T03:41:32.555Z,99.90
2019-06-26T03:42:37.753Z,99.90
2019-06-26T03:43:43.193Z,99.90
2019-06-26T03:44:48.132Z,99.90
2019-06-26T03:45:53.510Z,99.90
2019-06-26T03:46:59.624Z,99.90
2019-06-26T03:48:05.546Z,99.90
2019-06-26T03:49:10.414Z,99.90
2019-06-26T03:50:15.942Z,99.90
2019-06-26T03:51:21.020Z,99.90
2019-06-26T03:52:26.481Z,99.90
2019-06-26T03:53:32.184Z,99.90
2019-06-26T03:54:38.188Z,99.90
2019-06-26T03:55:43.044Z,99.90
2019-06-26T03:56:48.346Z,99.90
2019-06-26T03:57:53.757Z,99.90
2019-06-26T03:59:02.501Z,99.90
2019-06-26T04:00:08.182Z,99.90
2019-06-26T04:01:13.646Z,99.90
2019-06-26T04:02:18.434Z,99.90
2019-06-26T04:03:23.766Z,99.90
2019-06-26T04:04:28.522Z,99.90
2019-06-26T04:05:34.306Z,99.90
2019-06-26T04:06:39.174Z,99.90
2019-06-26T04:07:44.506Z,99.90
2019-06-26T04:08:49.572Z,99.90
2019-06-26T04:09:55.171Z,99.90
2019-06-26T04:11:00.016Z,99.90
2019-06-26T04:12:06.222Z,99.90
2019-06-26T04:13:11.026Z,99.90
2019-06-26T04:14:16.509Z,99.90
2019-06-26T04:15:21.424Z,99.90
2019-06-26T04:16:27.091Z,99.90
2019-06-26T04:17:31.846Z,99.90
2019-06-26T04:18:37.106Z,99.90
2019-06-26T04:19:42.147Z,99.90
2019-06-26T04:20:47.593Z,99.90
2019-06-26T04:21:52.354Z,99.90
2019-06-26T04:22:58.044Z,99.90
2019-06-26T04:24:02.750Z,99.90
2019-06-26T04:25:10.270Z,99.90
2019-06-26T04:26:15.121Z,99.90
2019-06-26T04:27:20.513Z,99.90
2019-06-26T04:28:25.216Z,99.90
2019-06-26T04:29:30.565Z,99.90
2019-06-26T04:30:35.377Z,99.90
2019-06-26T04:31:40.586Z,99.90
2019-06-26T04:32:45.289Z,99.90
2019-06-26T04:33:50.626Z,99.90
2019-06-26T04:34:55.342Z,99.90
2019-06-26T04:36:03.907Z,99.90
2019-06-26T04:37:08.839Z,99.90
2019-06-26T04:38:14.089Z,99.90
2019-06-26T04:39:19.078Z,99.90
2019-06-26T04:40:25.203Z,99.90
2019-06-26T04:41:34.976Z,99.90
2019-06-26T04:42:40.782Z,99.90
2019-06-26T04:43:53.860Z,99.90
2019-06-26T04:44:59.586Z,99.90
2019-06-26T04:46:16.522Z,99.90
2019-06-26T04:47:26.259Z,99.90
2019-06-26T04:48:41.042Z,99.90
2019-06-26T04:49:41.615Z,99.90
2019-06-26T04:50:46.387Z,99.90
2019-06-26T04:51:51.683Z,99.90
2019-06-26T04:52:56.566Z,99.90
2019-06-26T04:54:01.868Z,99.90
2019-06-26T04:55:07.591Z,99.90
2019-06-26T04:56:12.839Z,99.90
2019-06-26T04:57:17.659Z,99.90
2019-06-26T04:58:22.903Z,99.90
2019-06-26T04:59:27.575Z,99.90
2019-06-26T05:00:32.876Z,99.90
2019-06-26T05:01:37.663Z,99.90
2019-06-26T05:02:42.919Z,99.90
2019-06-26T05:03:59.331Z,99.90
2019-06-26T05:05:06.449Z,99.90
2019-06-26T05:06:11.267Z,99.90
2019-06-26T05:07:16.551Z,99.90
2019-06-26T05:08:21.215Z,99.90
2019-06-26T05:09:26.500Z,99.90
2019-06-26T05:10:31.289Z,99.90
2019-06-26T05:11:36.878Z,99.90
2019-06-26T05:12:41.575Z,99.90
2019-06-26T05:13:46.828Z,99.90
2019-06-26T05:14:51.834Z,99.90
2019-06-26T05:16:13.373Z,99.90
2019-06-26T05:17:03.608Z,99.90
2019-06-26T05:18:09.011Z,99.90
2019-06-26T05:19:13.732Z,99.90
2019-06-26T05:20:19.494Z,99.90
2019-06-26T05:21:24.561Z,99.90
2019-06-26T05:22:29.909Z,99.90
2019-06-26T05:23:34.813Z,99.90
2019-06-26T05:24:40.137Z,99.90
2019-06-26T05:25:44.937Z,99.90
2019-06-26T05:26:50.313Z,99.90
2019-06-26T05:27:55.108Z,99.90
2019-06-26T05:29:00.456Z,99.90
2019-06-26T05:30:06.439Z,99.90
2019-06-26T05:31:12.129Z,99.90
2019-06-26T05:32:16.985Z,99.90
2019-06-26T05:33:22.316Z,99.90
2019-06-26T05:34:27.074Z,99.90
2019-06-26T05:35:35.061Z,99.90
2019-06-26T05:36:38.736Z,99.90
2019-06-26T05:37:43.979Z,99.90
2019-06-26T05:38:48.771Z,99.90
2019-06-26T05:39:54.893Z,99.90
2019-06-26T05:41:00.143Z,99.90
2019-06-26T05:42:06.737Z,99.90
2019-06-26T05:43:11.671Z,99.90
2019-06-26T05:44:17.281Z,99.90
2019-06-26T05:45:22.343Z,99.90
2019-06-26T05:46:31.472Z,99.90
2019-06-26T05:47:34.251Z,99.90
2019-06-26T05:48:39.996Z,99.90
2019-06-26T05:49:44.698Z,99.90
2019-06-26T05:50:50.624Z,99.90
2019-06-26T05:51:55.495Z,99.90
2019-06-26T05:53:03.575Z,99.90
2019-06-26T05:54:08.534Z,99.90
2019-06-26T05:55:33.488Z,99.90
2019-06-26T05:56:40.553Z,99.90
2019-06-26T05:57:48.409Z,99.90
2019-06-26T05:58:52.640Z,99.90
2019-06-26T05:59:58.166Z,99.90
2019-06-26T06:01:03.960Z,99.90
2019-06-26T06:02:10.447Z,99.90
2019-06-26T06:03:15.150Z,99.90
2019-06-26T06:04:20.532Z,99.90
2019-06-26T06:05:25.406Z,99.90
2019-06-26T06:06:41.207Z,99.90
2019-06-26T06:07:37.618Z,99.90
2019-06-26T06:08:43.190Z,99.90
2019-06-26T06:09:47.992Z,99.90
2019-06-26T06:10:53.293Z,99.90
2019-06-26T06:11:58.101Z,99.90
2019-06-26T06:13:03.484Z,99.90
2019-06-26T06:14:09.638Z,99.90
2019-06-26T06:15:15.697Z,99.90
2019-06-26T06:16:20.732Z,99.90
2019-06-26T06:17:25.994Z,99.90
2019-06-26T06:18:30.713Z,99.90
2019-06-26T06:19:36.097Z,99.90
2019-06-26T06:20:41.109Z,99.90
2019-06-26T06:21:47.061Z,99.90
2019-06-26T06:22:52.028Z,99.90
2019-06-26T06:23:57.287Z,99.90
2019-06-26T06:25:02.494Z,99.90
2019-06-26T06:26:08.714Z,99.90
2019-06-26T06:27:13.456Z,99.90
2019-06-26T06:28:18.804Z,99.90
2019-06-26T06:29:23.722Z,99.90
2019-06-26T06:30:29.154Z,99.90
2019-06-26T06:31:35.729Z,99.90
2019-06-26T06:32:42.248Z,99.90
2019-06-26T06:33:47.446Z,99.90
2019-06-26T06:34:54.339Z,99.90
2019-06-26T06:35:59.599Z,99.90
2019-06-26T06:37:05.170Z,99.90
2019-06-26T06:38:09.813Z,99.90
2019-06-26T06:39:15.133Z,99.90
2019-06-26T06:40:20.005Z,99.90
2019-06-26T06:41:25.508Z,99.90
2019-06-26T06:42:30.545Z,99.90
2019-06-26T06:43:35.942Z,99.90
2019-06-26T06:44:41.008Z,99.90
2019-06-26T06:45:46.400Z,99.90
2019-06-26T06:47:03.258Z,99.90
2019-06-26T06:47:58.298Z,99.90
2019-06-26T06:49:03.498Z,99.90
2019-06-26T06:50:08.861Z,99.90
2019-06-26T06:51:16.346Z,99.90
2019-06-26T06:52:21.655Z,99.90
2019-06-26T06:53:27.043Z,99.90
2019-06-26T06:54:32.800Z,99.90
2019-06-26T06:55:37.548Z,99.90
2019-06-26T06:56:42.863Z,99.90
2019-06-26T06:57:47.709Z,99.90
2019-06-26T06:58:53.294Z,99.90
2019-06-26T06:59:58.077Z,99.90
2019-06-26T07:01:03.490Z,99.90
2019-06-26T07:02:08.363Z,99.90
2019-06-26T07:03:13.750Z,99.90
2019-06-26T07:04:20.704Z,99.90
2019-06-26T07:05:27.014Z,99.90
2019-06-26T07:06:31.790Z,99.90
2019-06-26T07:07:37.242Z,99.90
2019-06-26T07:08:44.337Z,99.90
2019-06-26T07:10:00.462Z,99.90
2019-06-26T07:11:05.471Z,99.90
2019-06-26T07:12:10.969Z,99.90
2019-06-26T07:13:16.339Z,99.90
2019-06-26T07:14:21.818Z,99.90
2019-06-26T07:15:26.706Z,99.90
2019-06-26T07:16:32.113Z,99.90
2019-06-26T07:17:37.340Z,99.90
2019-06-26T07:18:44.032Z,99.90
2019-06-26T07:19:52.027Z,99.90
2019-06-26T07:20:58.236Z,99.90
2019-06-26T07:22:03.070Z,99.90
2019-06-26T07:23:08.574Z,99.90
2019-06-26T07:24:13.699Z,99.90
2019-06-26T07:25:20.297Z,99.90
2019-06-26T07:26:25.071Z,99.90
2019-06-26T07:27:30.572Z,99.90
2019-06-26T07:28:35.562Z,99.90
2019-06-26T07:29:41.024Z,99.90
2019-06-26T07:30:46.006Z,99.90
2019-06-26T07:31:51.439Z,99.90
2019-06-26T07:32:56.593Z,99.90
2019-06-26T07:34:02.320Z,99.90
2019-06-26T07:35:08.176Z,99.90
2019-06-26T07:36:17.306Z,99.90
2019-06-26T07:37:22.702Z,99.90
2019-06-26T07:38:34.886Z,99.90
2019-06-26T07:39:43.508Z,99.90
2019-06-26T07:40:49.179Z,99.90
2019-06-26T07:41:55.351Z,99.90
2019-06-26T07:43:04.763Z,99.90
2019-06-26T07:44:15.959Z,99.90
2019-06-26T07:45:24.285Z,99.90
2019-06-26T07:46:30.074Z,99.90
2019-06-26T07:47:43.081Z,99.90
2019-06-26T07:48:42.854Z,99.90
2019-06-26T07:49:49.266Z,99.90
2019-06-26T07:50:54.456Z,99.90
2019-06-26T07:52:01.651Z,99.90
2019-06-26T07:53:06.878Z,99.90
2019-06-26T07:54:12.340Z,99.90
2019-06-26T07:55:20.194Z,99.90
2019-06-26T07:56:28.632Z,99.90
2019-06-26T07:57:39.210Z,99.90
2019-06-26T07:58:44.467Z,99.90
2019-06-26T07:59:49.774Z,99.90
2019-06-26T08:00:55.574Z,99.90
2019-06-26T08:02:00.474Z,99.90
2019-06-26T08:03:06.098Z,99.90
2019-06-26T08:04:11.392Z,99.90
2019-06-26T08:05:17.388Z,99.90
2019-06-26T08:06:24.765Z,99.90
2019-06-26T08:07:32.273Z,99.90
2019-06-26T08:08:37.754Z,99.90
2019-06-26T08:09:50.346Z,99.90
2019-06-26T08:10:56.687Z,99.90
2019-06-26T08:12:02.324Z,99.90
2019-06-26T08:13:07.542Z,99.90
2019-06-26T08:14:16.794Z,99.90
2019-06-26T08:15:22.631Z,99.90
2019-06-26T08:16:28.293Z,99.90
2019-06-26T08:17:33.765Z,99.90
2019-06-26T08:18:39.317Z,99.90
2019-06-26T08:19:43.989Z,99.90
2019-06-26T08:21:07.513Z,99.90
2019-06-26T08:21:59.170Z,99.90
2019-06-26T08:23:04.630Z,99.90
2019-06-26T08:24:10.242Z,99.90
2019-06-26T08:25:21.823Z,99.90
2019-06-26T08:26:28.084Z,99.90
2019-06-26T08:27:33.737Z,99.90
2019-06-26T08:28:38.592Z,99.90
2019-06-26T08:29:45.341Z,99.90
2019-06-26T08:30:50.068Z,99.90
2019-06-26T08:32:17.087Z,99.90
2019-06-26T08:33:26.994Z,99.90
2019-06-26T08:34:32.701Z,99.90
2019-06-26T08:35:37.400Z,99.90
2019-06-26T08:36:47.177Z,99.90
2019-06-26T08:38:08.857Z,99.90
2019-06-26T08:39:00.606Z,99.90
2019-06-26T08:40:07.143Z,99.90
2019-06-26T08:41:12.485Z,99.90
2019-06-26T08:42:17.424Z,99.90
2019-06-26T08:43:22.859Z,99.90
2019-06-26T08:44:28.186Z,99.90
2019-06-26T08:45:33.670Z,99.90
2019-06-26T08:46:54.860Z,99.90
2019-06-26T08:48:13.416Z,99.90
2019-06-26T08:49:24.385Z,99.90
2019-06-26T08:50:16.018Z,99.90
2019-06-26T08:51:29.484Z,99.90
2019-06-26T08:52:40.219Z,99.90
2019-06-26T08:53:45.259Z,99.90
2019-06-26T08:54:59.748Z,99.90
2019-06-26T08:56:20.430Z,99.90
2019-06-26T08:57:26.198Z,99.90
2019-06-26T08:58:33.104Z,99.90
2019-06-26T08:59:38.437Z,99.90
2019-06-26T09:00:43.354Z,99.90
2019-06-26T09:01:48.816Z,99.90
2019-06-26T09:02:53.574Z,99.90
2019-06-26T09:03:59.329Z,99.90
2019-06-26T09:05:20.093Z,99.90
2019-06-26T09:06:25.447Z,99.90
2019-06-26T09:08:03.445Z,99.90
2019-06-26T09:09:15.270Z,99.90
2019-06-26T09:10:20.823Z,99.90
2019-06-26T09:11:26.539Z,99.90
2019-06-26T09:13:02.746Z,99.90
2019-06-26T09:14:24.358Z,99.90
2019-06-26T09:15:29.276Z,99.90
2019-06-26T09:16:39.445Z,99.90
2019-06-26T09:17:44.196Z,99.90
2019-06-26T09:18:49.515Z,99.90
2019-06-26T09:20:07.374Z,99.90
2019-06-26T09:21:12.818Z,99.90
2019-06-26T09:22:21.567Z,99.90
2019-06-26T09:23:30.912Z,99.90
2019-06-26T09:24:36.799Z,99.90
2019-06-26T09:25:49.945Z,99.90
2019-06-26T09:26:55.536Z,99.90
2019-06-26T09:28:02.863Z,99.90
2019-06-26T09:29:08.741Z,99.90
2019-06-26T09:30:23.556Z,99.90
2019-06-26T09:31:35.902Z,99.90
2019-06-26T09:32:43.538Z,99.90
2019-06-26T09:33:48.671Z,99.90
2019-06-26T09:34:54.313Z,99.90
2019-06-26T09:36:00.779Z,99.90
2019-06-26T09:37:08.512Z,99.90
2019-06-26T09:38:14.665Z,99.90
2019-06-26T09:39:20.147Z,99.90
2019-06-26T09:40:24.981Z,99.90
2019-06-26T09:41:30.501Z,99.90
2019-06-26T09:42:35.327Z,99.90
2019-06-26T09:43:40.679Z,99.90
2019-06-26T09:44:47.826Z,99.90
2019-06-26T09:45:55.849Z,99.90
2019-06-26T09:47:04.627Z,99.90
2019-06-26T09:48:10.057Z,99.90
2019-06-26T09:49:15.254Z,99.90
2019-06-26T09:50:21.071Z,99.90
2019-06-26T09:51:27.486Z,99.90
2019-06-26T09:52:33.792Z,99.90
2019-06-26T09:53:47.098Z,99.90
2019-06-26T09:54:46.613Z,99.90
2019-06-26T09:55:52.807Z,99.90
2019-06-26T09:57:00.915Z,99.90
2019-06-26T09:58:06.007Z,99.90
2019-06-26T09:59:11.857Z,99.90
2019-06-26T10:00:19.655Z,99.90
2019-06-26T10:01:25.035Z,99.90
2019-06-26T10:02:33.660Z,99.90
2019-06-26T10:03:44.071Z,99.90
2019-06-26T10:04:46.887Z,99.90
2019-06-26T10:08:30.919Z,99.90
2019-06-26T10:10:24.950Z,99.90
2019-06-26T10:11:49.059Z,99.90
2019-06-26T10:12:59.178Z,99.90
2019-06-26T10:14:45.317Z,99.90
2019-06-26T10:15:33.993Z,99.90
2019-06-26T10:17:00.921Z,99.90
2019-06-26T10:18:07.755Z,99.90
2019-06-26T10:19:17.873Z,99.90
2019-06-26T10:20:23.004Z,99.90
2019-06-26T10:21:28.466Z,99.90
2019-06-26T10:23:21.219Z,99.90
2019-06-26T10:24:27.490Z,99.90
2019-06-26T10:25:39.907Z,99.90
2019-06-26T10:27:10.722Z,99.90
2019-06-26T10:28:20.592Z,99.90
2019-06-26T10:29:26.765Z,99.90
2019-06-26T10:30:31.542Z,99.90
2019-06-26T10:31:37.408Z,99.90
2019-06-26T10:32:42.809Z,99.90
2019-06-26T10:33:48.447Z,99.90
2019-06-26T10:34:53.766Z,99.90
2019-06-26T10:36:01.572Z,99.90
2019-06-26T10:37:06.486Z,99.90
2019-06-26T10:38:11.924Z,99.90
2019-06-26T10:39:17.928Z,99.90
2019-06-26T10:40:25.182Z,99.90
2019-06-26T10:41:59.597Z,99.90
2019-06-26T10:43:08.582Z,99.90
2019-06-26T10:44:33.332Z,99.90
2019-06-26T10:45:40.503Z,99.90
2019-06-26T10:46:45.768Z,99.90
2019-06-26T10:48:22.158Z,99.90
2019-06-26T10:49:32.384Z,99.90
2019-06-26T10:51:08.859Z,99.90
2019-06-26T10:52:13.808Z,99.90
2019-06-26T10:53:19.234Z,99.90
2019-06-26T10:54:27.133Z,98.80
2019-06-26T10:55:41.826Z,96.50
2019-06-26T10:56:47.180Z,93.80
2019-06-26T10:57:53.450Z,92.20
2019-06-26T10:58:59.141Z,90.40
2019-06-26T11:00:04.803Z,87.70
2019-06-26T11:01:10.288Z,82.80
2019-06-26T11:02:17.019Z,80.80
2019-06-26T11:03:23.506Z,77.70
2019-06-26T11:04:29.126Z,74.10
2019-06-26T11:05:33.958Z,71.30
2019-06-26T11:06:48.533Z,69.40
2019-06-26T11:07:54.813Z,67.00
2019-06-26T11:09:13.304Z,64.90
2019-06-26T11:10:26.383Z,62.50
2019-06-26T11:11:35.114Z,60.80
2019-06-26T11:12:48.946Z,59.50
2019-06-26T11:13:53.419Z,58.20
2019-06-26T11:14:58.639Z,57.90
2019-06-26T11:16:06.747Z,57.00
2019-06-26T11:17:12.437Z,56.10
2019-06-26T11:18:29.144Z,54.70
2019-06-26T11:22:53.146Z,53.80
2019-06-26T11:24:52.868Z,51.70
2019-06-26T11:26:47.249Z,52.40
2019-06-26T11:27:56.891Z,52.00
2019-06-26T11:29:03.521Z,51.00
2019-06-26T11:31:12.419Z,50.30
2019-06-26T11:33:38.995Z,49.70
2019-06-26T11:35:17.959Z,48.10
2019-06-26T11:37:22.975Z,46.30
2019-06-26T11:39:13.972Z,46.40
2019-06-26T11:40:30.927Z,46.70
2019-06-26T11:41:54.991Z,46.00
2019-06-26T11:43:04.201Z,45.00
2019-06-26T11:44:12.827Z,44.80
2019-06-26T11:45:24.195Z,45.10
2019-06-26T11:46:30.475Z,44.90
2019-06-26T11:47:37.219Z,44.00
2019-06-26T11:48:42.518Z,44.20
2019-06-26T11:52:07.251Z,44.20
2019-06-26T11:54:09.291Z,43.70
2019-06-26T11:55:19.900Z,44.00
2019-06-26T11:56:26.567Z,47.20
2019-06-26T11:57:35.457Z,45.90
2019-06-26T11:59:09.133Z,46.40
2019-06-26T12:02:20.361Z,47.70
2019-06-26T12:03:27.395Z,48.20
2019-06-26T12:05:15.479Z,48.40
2019-06-26T12:08:35.848Z,49.50
2019-06-26T12:09:57.184Z,50.30
2019-06-26T12:11:21.089Z,50.70
2019-06-26T12:12:27.503Z,51.30
2019-06-26T12:13:45.450Z,51.60
2019-06-26T12:14:53.419Z,52.70
2019-06-26T12:16:04.699Z,54.50
2019-06-26T12:17:13.210Z,54.40
2019-06-26T12:18:30.489Z,55.90
2019-06-26T12:19:43.003Z,55.90
2019-06-26T12:20:48.420Z,57.00
2019-06-26T12:21:56.551Z,56.70
2019-06-26T12:23:03.078Z,58.10
2019-06-26T12:24:11.162Z,58.10
2019-06-26T12:25:20.895Z,58.80
2019-06-26T12:26:51.424Z,59.70
2019-06-26T12:28:10.705Z,60.00
2019-06-26T12:29:19.923Z,60.90
2019-06-26T12:30:25.447Z,61.10
2019-06-26T12:31:31.691Z,60.10
2019-06-26T12:33:10.766Z,60.90
2019-06-26T12:34:25.997Z,61.00
2019-06-26T12:35:39.835Z,62.50
2019-06-26T12:37:04.443Z,63.50
2019-06-26T12:38:10.641Z,63.70
2019-06-26T12:39:36.491Z,64.40
2019-06-26T12:41:11.293Z,64.80
2019-06-26T12:42:19.892Z,65.60
2019-06-26T12:43:32.989Z,64.70
2019-06-26T12:45:10.554Z,65.60
2019-06-26T12:46:42.227Z,65.70
2019-06-26T12:47:47.945Z,65.50
2019-06-26T12:48:53.544Z,65.60
2019-06-26T12:50:03.454Z,65.70
2019-06-26T12:51:10.152Z,64.70
2019-06-26T12:52:17.096Z,65.50
2019-06-26T12:53:28.580Z,65.80
2019-06-26T12:55:20.733Z,65.50
2019-06-26T12:56:31.326Z,66.10
2019-06-26T12:57:36.463Z,65.80
2019-06-26T12:58:42.083Z,65.90
2019-06-26T12:59:57.279Z,66.20
2019-06-26T13:00:55.059Z,66.20
2019-06-26T13:02:00.467Z,66.10
2019-06-26T13:03:08.773Z,66.40
2019-06-26T13:04:18.469Z,66.50
2019-06-26T13:05:33.846Z,66.70
2019-06-26T13:06:35.083Z,66.80
2019-06-26T13:07:40.404Z,66.90
2019-06-26T13:08:45.360Z,66.90
2019-06-26T13:10:12.005Z,67.50
2019-06-26T13:11:12.957Z,68.30
2019-06-26T13:13:04.436Z,67.30
2019-06-26T13:14:34.764Z,67.70
2019-06-26T13:16:03.335Z,67.50
2019-06-26T13:17:09.785Z,67.50
2019-06-26T13:18:30.742Z,67.80
2019-06-26T13:20:31.927Z,68.00
2019-06-26T13:21:59.914Z,68.00
2019-06-26T13:24:44.364Z,68.30
2019-06-26T13:25:55.875Z,69.20
2019-06-26T13:27:03.564Z,69.20
2019-06-26T13:28:12.630Z,68.40
2019-06-26T13:29:18.048Z,69.00
2019-06-26T13:30:36.675Z,69.00
2019-06-26T13:31:44.411Z,69.30
2019-06-26T13:32:58.247Z,69.40
2019-06-26T13:34:05.015Z,69.40
2019-06-26T13:35:10.285Z,69.60
2019-06-26T13:36:29.617Z,69.80
2019-06-26T13:37:35.228Z,69.40
2019-06-26T13:38:43.612Z,70.40
2019-06-26T13:39:52.310Z,70.30
2019-06-26T13:40:58.029Z,70.00
2019-06-26T13:42:02.873Z,69.70
2019-06-26T13:43:08.282Z,69.00
2019-06-26T13:44:13.268Z,70.20
2019-06-26T13:45:18.759Z,68.90
2019-06-26T13:46:23.702Z,69.00
2019-06-26T13:47:30.583Z,69.30
2019-06-26T13:48:35.673Z,70.50
2019-06-26T13:49:41.511Z,69.40
2019-06-26T13:50:46.944Z,70.60
2019-06-26T13:51:52.354Z,70.80
2019-06-26T13:52:57.539Z,71.40
2019-06-26T13:54:03.251Z,71.20
2019-06-26T13:55:08.167Z,72.20
2019-06-26T13:56:13.522Z,71.90
2019-06-26T13:57:18.543Z,71.50
2019-06-26T13:58:23.967Z,71.50
2019-06-26T13:59:30.329Z,71.70
2019-06-26T14:00:35.718Z,71.90
2019-06-26T14:01:40.466Z,71.60
2019-06-26T14:02:54.100Z,72.10
2019-06-26T14:04:24.432Z,71.60
2019-06-26T14:06:20.679Z,71.50
2019-06-26T14:09:13.370Z,72.10
2019-06-26T14:10:32.554Z,72.30
2019-06-26T14:11:37.570Z,71.50
2019-06-26T14:12:44.844Z,70.70
2019-06-26T14:13:54.509Z,71.60
2019-06-26T14:15:04.069Z,72.00
2019-06-26T14:16:29.677Z,70.70
2019-06-26T14:17:44.805Z,71.20
2019-06-26T14:18:49.757Z,72.10
2019-06-26T14:20:27.053Z,72.40
2019-06-26T14:21:33.836Z,72.40
2019-06-26T14:22:39.168Z,71.90
2019-06-26T14:24:00.041Z,72.00
2019-06-26T14:25:05.675Z,71.20
2019-06-26T14:26:10.515Z,72.00
2019-06-26T14:27:23.035Z,72.70
2019-06-26T14:28:35.636Z,72.00
2019-06-26T14:29:47.846Z,72.20
2019-06-26T14:30:53.012Z,72.40
2019-06-26T14:31:59.372Z,70.30
2019-06-26T14:33:05.367Z,71.10
2019-06-26T14:34:10.979Z,71.10
2019-06-26T14:35:17.641Z,71.20
2019-06-26T14:36:38.759Z,72.40
2019-06-26T14:38:09.772Z,71.90
2019-06-26T14:39:57.769Z,72.80
2019-06-26T14:41:03.097Z,72.80
2019-06-26T14:43:15.392Z,73.00
2019-06-26T14:44:21.966Z,73.30
2019-06-26T14:45:29.322Z,72.40
2019-06-26T14:46:44.024Z,73.10
2019-06-26T14:47:55.846Z,73.20
2019-06-26T14:49:04.297Z,73.50
2019-06-26T14:50:11.053Z,72.20
2019-06-26T14:51:17.255Z,69.60
2019-06-26T14:52:23.052Z,71.40
2019-06-26T14:53:28.924Z,68.50
2019-06-26T14:54:35.366Z,68.20
2019-06-26T14:55:43.301Z,71.20
2019-06-26T14:57:44.539Z,71.80
2019-06-26T14:58:54.257Z,70.60
2019-06-26T15:00:27.116Z,72.70
2019-06-26T15:01:33.509Z,72.70
2019-06-26T15:02:39.908Z,71.00
2019-06-26T15:03:45.342Z,72.10